sensor_id;sensor_type;location;lat;lon;timestamp;pressure;altitude;pressure_sealevel;temperature;humidity
34177;BME280;20450;49.074;9.158;2023-02-20T00:01:33;100908.88;;;10.02;74.01
34177;BME280;20450;49.074;9.158;2023-02-20T00:04:00;100908.72;;;10.04;73.93
34177;BME280;20450;49.074;9.158;2023-02-20T00:06:27;100905.34;;;10.02;73.58
34177;BME280;20450;49.074;9.158;2023-02-20T00:08:55;100901.97;;;10.00;73.80
34177;BME280;20450;49.074;9.158;2023-02-20T00:11:22;100902.69;;;9.94;73.89
34177;BME280;20450;49.074;9.158;2023-02-20T00:13:49;100901.25;;;9.83;73.81
34177;BME280;20450;49.074;9.158;2023-02-20T00:16:16;100900.88;;;9.86;74.06
34177;BME280;20450;49.074;9.158;2023-02-20T00:18:44;100895.84;;;9.83;73.81
34177;BME280;20450;49.074;9.158;2023-02-20T00:21:11;100906.19;;;9.80;74.55
34177;BME280;20450;49.074;9.158;2023-02-20T00:23:38;100911.41;;;9.81;74.14
34177;BME280;20450;49.074;9.158;2023-02-20T00:26:09;100922.38;;;9.80;73.93
34177;BME280;20450;49.074;9.158;2023-02-20T00:28:37;100918.19;;;9.77;74.04
34177;BME280;20450;49.074;9.158;2023-02-20T00:31:05;100917.50;;;9.75;74.25
34177;BME280;20450;49.074;9.158;2023-02-20T00:33:35;100924.41;;;9.78;74.58
34177;BME280;20450;49.074;9.158;2023-02-20T00:36:02;100923.41;;;9.79;74.13
34177;BME280;20450;49.074;9.158;2023-02-20T00:38:30;100921.88;;;9.76;74.10
34177;BME280;20450;49.074;9.158;2023-02-20T00:41:00;100931.19;;;9.74;73.96
34177;BME280;20450;49.074;9.158;2023-02-20T00:43:28;100930.16;;;9.75;74.15
34177;BME280;20450;49.074;9.158;2023-02-20T00:45:55;100922.91;;;9.75;73.68
34177;BME280;20450;49.074;9.158;2023-02-20T00:48:22;100919.72;;;9.72;74.24
34177;BME280;20450;49.074;9.158;2023-02-20T00:51:08;100923.78;;;9.68;74.68
34177;BME280;20450;49.074;9.158;2023-02-20T00:53:37;100921.09;;;9.68;74.65
34177;BME280;20450;49.074;9.158;2023-02-20T00:56:04;100922.78;;;9.69;74.65
34177;BME280;20450;49.074;9.158;2023-02-20T00:58:33;100920.25;;;9.67;74.39
34177;BME280;20450;49.074;9.158;2023-02-20T01:01:00;100916.25;;;9.63;74.37
34177;BME280;20450;49.074;9.158;2023-02-20T01:03:27;100917.13;;;9.56;74.55
34177;BME280;20450;49.074;9.158;2023-02-20T01:05:54;100915.81;;;9.52;74.92
34177;BME280;20450;49.074;9.158;2023-02-20T01:08:21;100912.25;;;9.51;74.68
34177;BME280;20450;49.074;9.158;2023-02-20T01:10:48;100912.63;;;9.48;74.79
34177;BME280;20450;49.074;9.158;2023-02-20T01:13:15;100908.81;;;9.35;75.31
34177;BME280;20450;49.074;9.158;2023-02-20T01:15:44;100915.13;;;9.19;76.18
34177;BME280;20450;49.074;9.158;2023-02-20T01:18:12;100906.19;;;9.19;75.79
34177;BME280;20450;49.074;9.158;2023-02-20T01:20:40;100903.31;;;9.20;75.77
34177;BME280;20450;49.074;9.158;2023-02-20T01:23:07;100903.50;;;9.19;75.83
34177;BME280;20450;49.074;9.158;2023-02-20T01:25:33;100902.69;;;9.10;76.23
34177;BME280;20450;49.074;9.158;2023-02-20T01:28:01;100901.69;;;9.11;75.95
34177;BME280;20450;49.074;9.158;2023-02-20T01:30:28;100909.66;;;8.97;76.50
34177;BME280;20450;49.074;9.158;2023-02-20T01:32:56;100911.16;;;8.99;76.13
34177;BME280;20450;49.074;9.158;2023-02-20T01:35:23;100918.09;;;8.94;76.41
34177;BME280;20450;49.074;9.158;2023-02-20T01:37:50;100918.78;;;8.88;76.52
34177;BME280;20450;49.074;9.158;2023-02-20T01:40:19;100914.78;;;8.76;76.67
34177;BME280;20450;49.074;9.158;2023-02-20T01:42:48;100907.19;;;8.71;76.95
34177;BME280;20450;49.074;9.158;2023-02-20T01:45:24;100924.22;;;8.72;76.59
34177;BME280;20450;49.074;9.158;2023-02-20T01:47:57;100922.88;;;8.60;77.04
34177;BME280;20450;49.074;9.158;2023-02-20T01:50:27;100909.25;;;8.61;77.21
34177;BME280;20450;49.074;9.158;2023-02-20T01:53:01;100905.25;;;8.49;76.94
34177;BME280;20450;49.074;9.158;2023-02-20T01:55:37;100907.78;;;8.35;77.61
34177;BME280;20450;49.074;9.158;2023-02-20T01:58:12;100903.91;;;8.29;77.70
34177;BME280;20450;49.074;9.158;2023-02-20T02:00:43;100896.63;;;8.22;77.49
34177;BME280;20450;49.074;9.158;2023-02-20T02:03:15;100897.81;;;8.19;77.72
34177;BME280;20450;49.074;9.158;2023-02-20T02:05:51;100898.66;;;8.12;78.74
34177;BME280;20450;49.074;9.158;2023-02-20T02:08:22;100896.16;;;8.10;78.37
34177;BME280;20450;49.074;9.158;2023-02-20T02:10:55;100892.59;;;8.09;78.67
34177;BME280;20450;49.074;9.158;2023-02-20T02:13:27;100898.66;;;8.12;78.91
34177;BME280;20450;49.074;9.158;2023-02-20T02:16:03;100893.63;;;8.08;78.73
34177;BME280;20450;49.074;9.158;2023-02-20T02:18:48;100888.25;;;8.08;79.05
34177;BME280;20450;49.074;9.158;2023-02-20T02:21:58;100891.63;;;8.11;78.50
34177;BME280;20450;49.074;9.158;2023-02-20T02:28:36;100898.13;;;7.60;80.68
34177;BME280;20450;49.074;9.158;2023-02-20T02:31:52;100891.53;;;7.54;80.87
34177;BME280;20450;49.074;9.158;2023-02-20T02:38:05;100885.66;;;7.43;82.27
34177;BME280;20450;49.074;9.158;2023-02-20T02:40:43;100896.56;;;7.41;82.26
34177;BME280;20450;49.074;9.158;2023-02-20T02:43:25;100885.84;;;7.49;82.34
34177;BME280;20450;49.074;9.158;2023-02-20T02:46:05;100878.09;;;7.54;81.99
34177;BME280;20450;49.074;9.158;2023-02-20T02:48:44;100885.84;;;7.57;82.13
34177;BME280;20450;49.074;9.158;2023-02-20T02:51:17;100873.41;;;7.56;81.51
34177;BME280;20450;49.074;9.158;2023-02-20T02:54:07;100877.78;;;7.57;81.86
34177;BME280;20450;49.074;9.158;2023-02-20T02:56:35;100881.16;;;7.59;81.76
34177;BME280;20450;49.074;9.158;2023-02-20T02:59:08;100869.06;;;7.55;81.80
34177;BME280;20450;49.074;9.158;2023-02-20T03:01:42;100872.06;;;7.52;81.93
34177;BME280;20450;49.074;9.158;2023-02-20T03:04:14;100875.25;;;7.48;82.47
34177;BME280;20450;49.074;9.158;2023-02-20T03:06:45;100877.41;;;7.44;82.33
34177;BME280;20450;49.074;9.158;2023-02-20T03:09:18;100872.38;;;7.41;82.92
34177;BME280;20450;49.074;9.158;2023-02-20T03:11:50;100877.94;;;7.48;82.26
34177;BME280;20450;49.074;9.158;2023-02-20T03:14:25;100871.72;;;7.47;82.21
34177;BME280;20450;49.074;9.158;2023-02-20T03:17:02;100868.69;;;7.42;82.37
34177;BME280;20450;49.074;9.158;2023-02-20T03:19:40;100881.44;;;7.48;81.82
34177;BME280;20450;49.074;9.158;2023-02-20T03:22:13;100877.13;;;7.55;81.76
34177;BME280;20450;49.074;9.158;2023-02-20T03:24:49;100877.09;;;7.47;81.53
34177;BME280;20450;49.074;9.158;2023-02-20T03:27:26;100886.50;;;7.43;82.06
34177;BME280;20450;49.074;9.158;2023-02-20T03:30:01;100885.13;;;7.31;82.41
34177;BME280;20450;49.074;9.158;2023-02-20T03:32:30;100886.44;;;7.19;82.96
34177;BME280;20450;49.074;9.158;2023-02-20T03:35:00;100881.66;;;7.05;83.44
34177;BME280;20450;49.074;9.158;2023-02-20T03:37:33;100886.00;;;6.90;83.74
34177;BME280;20450;49.074;9.158;2023-02-20T03:40:09;100887.28;;;6.86;84.54
34177;BME280;20450;49.074;9.158;2023-02-20T03:42:43;100886.31;;;6.87;84.21
34177;BME280;20450;49.074;9.158;2023-02-20T03:45:24;100880.47;;;6.92;84.28
34177;BME280;20450;49.074;9.158;2023-02-20T03:47:58;100883.16;;;6.92;84.77
34177;BME280;20450;49.074;9.158;2023-02-20T03:50:31;100881.44;;;6.91;83.54
34177;BME280;20450;49.074;9.158;2023-02-20T03:52:59;100881.22;;;6.76;84.22
34177;BME280;20450;49.074;9.158;2023-02-20T03:55:28;100883.19;;;6.74;84.78
34177;BME280;20450;49.074;9.158;2023-02-20T03:58:00;100888.56;;;6.66;85.43
34177;BME280;20450;49.074;9.158;2023-02-20T04:00:37;100887.00;;;6.64;85.23
34177;BME280;20450;49.074;9.158;2023-02-20T04:03:14;100882.94;;;6.52;85.60
34177;BME280;20450;49.074;9.158;2023-02-20T04:05:50;100886.41;;;6.44;85.85
34177;BME280;20450;49.074;9.158;2023-02-20T04:08:29;100876.97;;;6.40;85.99
34177;BME280;20450;49.074;9.158;2023-02-20T04:11:07;100876.66;;;6.43;85.85
34177;BME280;20450;49.074;9.158;2023-02-20T04:13:38;100873.34;;;6.49;85.60
34177;BME280;20450;49.074;9.158;2023-02-20T04:16:08;100873.19;;;6.51;85.27
34177;BME280;20450;49.074;9.158;2023-02-20T04:18:46;100870.00;;;6.47;85.30
34177;BME280;20450;49.074;9.158;2023-02-20T04:21:20;100864.66;;;6.55;86.12
34177;BME280;20450;49.074;9.158;2023-02-20T04:24:01;100867.22;;;6.65;85.26
34177;BME280;20450;49.074;9.158;2023-02-20T04:26:34;100871.81;;;6.72;85.55
34177;BME280;20450;49.074;9.158;2023-02-20T04:29:02;100867.09;;;6.74;85.25
34177;BME280;20450;49.074;9.158;2023-02-20T04:31:30;100878.69;;;6.75;84.55
34177;BME280;20450;49.074;9.158;2023-02-20T04:33:58;100878.91;;;6.81;84.56
34177;BME280;20450;49.074;9.158;2023-02-20T04:36:26;100886.16;;;6.89;84.44
34177;BME280;20450;49.074;9.158;2023-02-20T04:38:56;100893.25;;;6.98;84.29
34177;BME280;20450;49.074;9.158;2023-02-20T04:41:27;100888.53;;;7.00;83.51
34177;BME280;20450;49.074;9.158;2023-02-20T04:43:55;100892.41;;;6.97;83.05
34177;BME280;20450;49.074;9.158;2023-02-20T04:46:24;100888.47;;;6.84;83.47
34177;BME280;20450;49.074;9.158;2023-02-20T04:48:51;100893.53;;;6.61;84.27
34177;BME280;20450;49.074;9.158;2023-02-20T04:51:18;100885.13;;;6.56;84.54
34177;BME280;20450;49.074;9.158;2023-02-20T04:53:45;100881.22;;;6.51;85.26
34177;BME280;20450;49.074;9.158;2023-02-20T04:56:12;100890.94;;;6.44;85.30
34177;BME280;20450;49.074;9.158;2023-02-20T04:58:45;100880.44;;;6.33;85.93
34177;BME280;20450;49.074;9.158;2023-02-20T05:01:18;100889.97;;;6.27;86.33
34177;BME280;20450;49.074;9.158;2023-02-20T05:03:45;100887.44;;;6.26;86.16
34177;BME280;20450;49.074;9.158;2023-02-20T05:06:12;100888.31;;;6.26;86.08
34177;BME280;20450;49.074;9.158;2023-02-20T05:08:39;100871.13;;;6.19;86.21
34177;BME280;20450;49.074;9.158;2023-02-20T05:11:07;100876.44;;;6.11;86.29
34177;BME280;20450;49.074;9.158;2023-02-20T05:13:34;100875.56;;;6.03;86.47
34177;BME280;20450;49.074;9.158;2023-02-20T05:16:01;100876.22;;;6.04;86.34
34177;BME280;20450;49.074;9.158;2023-02-20T05:18:29;100871.88;;;6.03;86.50
34177;BME280;20450;49.074;9.158;2023-02-20T05:20:57;100872.06;;;6.10;86.28
34177;BME280;20450;49.074;9.158;2023-02-20T05:23:24;100877.44;;;6.10;85.38
34177;BME280;20450;49.074;9.158;2023-02-20T05:25:50;100882.78;;;6.10;85.72
34177;BME280;20450;49.074;9.158;2023-02-20T05:28:17;100880.34;;;6.17;86.03
34177;BME280;20450;49.074;9.158;2023-02-20T05:30:44;100886.91;;;6.22;85.27
34177;BME280;20450;49.074;9.158;2023-02-20T05:33:11;100894.50;;;6.27;85.39
34177;BME280;20450;49.074;9.158;2023-02-20T05:35:39;100894.78;;;6.41;85.07
34177;BME280;20450;49.074;9.158;2023-02-20T05:38:06;100896.00;;;6.55;85.05
34177;BME280;20450;49.074;9.158;2023-02-20T05:40:33;100896.59;;;6.66;83.51
34177;BME280;20450;49.074;9.158;2023-02-20T05:43:00;100893.28;;;6.72;83.23
34177;BME280;20450;49.074;9.158;2023-02-20T05:45:27;100877.44;;;6.61;82.78
34177;BME280;20450;49.074;9.158;2023-02-20T05:47:54;100879.75;;;6.56;84.00
34177;BME280;20450;49.074;9.158;2023-02-20T05:50:21;100876.44;;;6.62;83.42
34177;BME280;20450;49.074;9.158;2023-02-20T05:52:51;100872.28;;;6.68;82.77
34177;BME280;20450;49.074;9.158;2023-02-20T05:55:18;100871.28;;;6.69;82.73
34177;BME280;20450;49.074;9.158;2023-02-20T05:57:45;100876.09;;;6.65;82.96
34177;BME280;20450;49.074;9.158;2023-02-20T06:00:13;100877.84;;;6.74;82.89
34177;BME280;20450;49.074;9.158;2023-02-20T06:02:40;100876.53;;;6.78;82.72
34177;BME280;20450;49.074;9.158;2023-02-20T06:05:07;100871.81;;;6.80;81.81
34177;BME280;20450;49.074;9.158;2023-02-20T06:07:34;100868.97;;;6.82;81.61
34177;BME280;20450;49.074;9.158;2023-02-20T06:10:03;100871.66;;;6.82;81.81
34177;BME280;20450;49.074;9.158;2023-02-20T06:12:30;100874.19;;;6.83;81.83
34177;BME280;20450;49.074;9.158;2023-02-20T06:14:57;100870.69;;;6.83;81.93
34177;BME280;20450;49.074;9.158;2023-02-20T06:17:24;100868.31;;;6.80;82.16
34177;BME280;20450;49.074;9.158;2023-02-20T06:19:51;100867.09;;;6.74;81.58
34177;BME280;20450;49.074;9.158;2023-02-20T06:22:18;100877.13;;;6.64;82.04
34177;BME280;20450;49.074;9.158;2023-02-20T06:24:46;100881.47;;;6.57;82.90
34177;BME280;20450;49.074;9.158;2023-02-20T06:27:16;100878.78;;;6.57;82.94
34177;BME280;20450;49.074;9.158;2023-02-20T06:29:45;100875.38;;;6.55;83.86
34177;BME280;20450;49.074;9.158;2023-02-20T06:32:13;100878.94;;;6.56;83.84
34177;BME280;20450;49.074;9.158;2023-02-20T06:34:39;100887.47;;;6.59;84.01
34177;BME280;20450;49.074;9.158;2023-02-20T06:37:06;100886.19;;;6.63;84.12
34177;BME280;20450;49.074;9.158;2023-02-20T06:39:33;100894.72;;;6.59;84.69
34177;BME280;20450;49.074;9.158;2023-02-20T06:42:00;100895.19;;;6.54;83.55
34177;BME280;20450;49.074;9.158;2023-02-20T06:44:28;100896.47;;;6.42;84.00
34177;BME280;20450;49.074;9.158;2023-02-20T06:46:55;100883.59;;;6.28;84.28
34177;BME280;20450;49.074;9.158;2023-02-20T06:49:22;100890.91;;;6.18;84.19
34177;BME280;20450;49.074;9.158;2023-02-20T06:51:51;100884.78;;;6.51;83.90
34177;BME280;20450;49.074;9.158;2023-02-20T06:54:19;100886.97;;;6.89;82.36
34177;BME280;20450;49.074;9.158;2023-02-20T06:56:47;100895.03;;;7.31;79.89
34177;BME280;20450;49.074;9.158;2023-02-20T06:59:14;100889.88;;;7.45;78.67
34177;BME280;20450;49.074;9.158;2023-02-20T07:01:42;100905.03;;;7.94;77.76
34177;BME280;20450;49.074;9.158;2023-02-20T07:04:14;100907.63;;;8.36;75.52
34177;BME280;20450;49.074;9.158;2023-02-20T07:06:43;100904.59;;;8.31;74.64
34177;BME280;20450;49.074;9.158;2023-02-20T07:09:10;100904.38;;;7.84;76.33
34177;BME280;20450;49.074;9.158;2023-02-20T07:11:37;100901.63;;;7.44;78.00
34177;BME280;20450;49.074;9.158;2023-02-20T07:14:04;100899.44;;;7.48;78.81
34177;BME280;20450;49.074;9.158;2023-02-20T07:16:31;100900.75;;;7.36;79.11
34177;BME280;20450;49.074;9.158;2023-02-20T07:18:59;100916.31;;;7.98;76.97
34177;BME280;20450;49.074;9.158;2023-02-20T07:21:27;100922.88;;;8.03;75.89
34177;BME280;20450;49.074;9.158;2023-02-20T07:23:54;100908.00;;;8.80;73.91
34177;BME280;20450;49.074;9.158;2023-02-20T07:26:24;100915.22;;;8.87;72.07
34177;BME280;20450;49.074;9.158;2023-02-20T07:28:52;100911.94;;;9.46;70.15
34177;BME280;20450;49.074;9.158;2023-02-20T07:31:20;100902.03;;;9.08;70.25
34177;BME280;20450;49.074;9.158;2023-02-20T07:33:47;100903.66;;;9.48;71.53
34177;BME280;20450;49.074;9.158;2023-02-20T07:36:16;100912.97;;;9.15;70.73
34177;BME280;20450;49.074;9.158;2023-02-20T07:38:52;100903.00;;;9.99;67.91
34177;BME280;20450;49.074;9.158;2023-02-20T07:41:19;100896.88;;;11.08;64.93
34177;BME280;20450;49.074;9.158;2023-02-20T07:43:46;100903.06;;;10.36;66.21
34177;BME280;20450;49.074;9.158;2023-02-20T07:46:13;100911.13;;;10.73;65.12
34177;BME280;20450;49.074;9.158;2023-02-20T07:48:41;100901.63;;;10.92;64.41
34177;BME280;20450;49.074;9.158;2023-02-20T07:51:08;100899.38;;;10.95;64.93
34177;BME280;20450;49.074;9.158;2023-02-20T07:56:54;100889.09;;;11.34;62.15
34177;BME280;20450;49.074;9.158;2023-02-20T07:59:21;100887.41;;;11.33;62.39
34177;BME280;20450;49.074;9.158;2023-02-20T08:01:48;100885.34;;;11.35;62.29
34177;BME280;20450;49.074;9.158;2023-02-20T08:04:15;100896.13;;;10.71;64.22
34177;BME280;20450;49.074;9.158;2023-02-20T08:06:42;100887.53;;;10.67;65.23
34177;BME280;20450;49.074;9.158;2023-02-20T08:09:09;100889.00;;;11.28;62.29
34177;BME280;20450;49.074;9.158;2023-02-20T08:11:38;100890.03;;;10.54;64.79
34177;BME280;20450;49.074;9.158;2023-02-20T08:14:06;100886.53;;;12.04;62.04
34177;BME280;20450;49.074;9.158;2023-02-20T08:16:33;100886.63;;;14.01;56.22
34177;BME280;20450;49.074;9.158;2023-02-20T08:19:00;100891.88;;;14.67;52.16
34177;BME280;20450;49.074;9.158;2023-02-20T08:21:27;100892.88;;;13.95;54.84
34177;BME280;20450;49.074;9.158;2023-02-20T08:23:55;100884.78;;;13.41;55.87
34177;BME280;20450;49.074;9.158;2023-02-20T08:26:23;100892.78;;;12.47;58.64
34177;BME280;20450;49.074;9.158;2023-02-20T08:28:52;100885.72;;;12.52;59.20
34177;BME280;20450;49.074;9.158;2023-02-20T08:31:19;100886.72;;;12.79;58.55
34177;BME280;20450;49.074;9.158;2023-02-20T08:33:58;100886.78;;;14.97;52.99
34177;BME280;20450;49.074;9.158;2023-02-20T08:36:25;100883.94;;;14.33;53.19
34177;BME280;20450;49.074;9.158;2023-02-20T08:38:52;100868.31;;;15.18;51.76
34177;BME280;20450;49.074;9.158;2023-02-20T08:41:19;100868.28;;;13.36;55.57
34177;BME280;20450;49.074;9.158;2023-02-20T08:43:53;100873.38;;;11.59;62.25
34177;BME280;20450;49.074;9.158;2023-02-20T08:46:21;100874.16;;;12.71;58.51
34177;BME280;20450;49.074;9.158;2023-02-20T08:48:48;100870.59;;;12.64;59.80
34177;BME280;20450;49.074;9.158;2023-02-20T08:51:18;100858.00;;;14.18;54.92
34177;BME280;20450;49.074;9.158;2023-02-20T08:53:50;100860.22;;;14.99;52.38
34177;BME280;20450;49.074;9.158;2023-02-20T08:56:20;100865.91;;;13.80;54.74
34177;BME280;20450;49.074;9.158;2023-02-20T08:58:47;100862.75;;;12.21;59.74
34177;BME280;20450;49.074;9.158;2023-02-20T09:01:15;100860.47;;;13.13;58.09
34177;BME280;20450;49.074;9.158;2023-02-20T09:03:43;100854.69;;;14.42;54.00
34177;BME280;20450;49.074;9.158;2023-02-20T09:06:09;100860.44;;;13.67;55.22
34177;BME280;20450;49.074;9.158;2023-02-20T09:08:37;100863.38;;;13.12;56.54
34177;BME280;20450;49.074;9.158;2023-02-20T09:11:05;100858.25;;;13.36;56.12
34177;BME280;20450;49.074;9.158;2023-02-20T09:13:41;100851.88;;;12.76;57.34
34177;BME280;20450;49.074;9.158;2023-02-20T09:16:16;100843.72;;;13.03;57.75
34177;BME280;20450;49.074;9.158;2023-02-20T09:18:46;100853.84;;;13.29;57.31
34177;BME280;20450;49.074;9.158;2023-02-20T09:21:16;100844.88;;;14.34;55.07
34177;BME280;20450;49.074;9.158;2023-02-20T09:23:44;100839.22;;;14.29;54.12
34177;BME280;20450;49.074;9.158;2023-02-20T09:26:11;100835.75;;;13.55;56.73
34177;BME280;20450;49.074;9.158;2023-02-20T09:28:39;100830.81;;;13.92;56.58
34177;BME280;20450;49.074;9.158;2023-02-20T09:31:06;100835.41;;;14.69;53.50
34177;BME280;20450;49.074;9.158;2023-02-20T09:33:34;100820.03;;;15.01;52.25
34177;BME280;20450;49.074;9.158;2023-02-20T09:36:02;100828.41;;;14.99;52.34
34177;BME280;20450;49.074;9.158;2023-02-20T09:38:29;100818.97;;;15.08;52.20
34177;BME280;20450;49.074;9.158;2023-02-20T09:40:58;100823.16;;;15.04;52.69
34177;BME280;20450;49.074;9.158;2023-02-20T09:43:37;100816.56;;;14.68;53.47
34177;BME280;20450;49.074;9.158;2023-02-20T09:46:15;100815.78;;;14.22;54.81
34177;BME280;20450;49.074;9.158;2023-02-20T09:48:59;100824.41;;;15.02;52.75
34177;BME280;20450;49.074;9.158;2023-02-20T09:51:37;100814.22;;;15.35;50.57
34177;BME280;20450;49.074;9.158;2023-02-20T09:54:10;100815.22;;;15.85;50.40
34177;BME280;20450;49.074;9.158;2023-02-20T09:56:41;100808.50;;;15.56;50.37
34177;BME280;20450;49.074;9.158;2023-02-20T09:59:17;100807.53;;;15.75;50.17
34177;BME280;20450;49.074;9.158;2023-02-20T10:01:52;100803.25;;;16.10;49.44
34177;BME280;20450;49.074;9.158;2023-02-20T10:04:27;100794.56;;;17.94;45.78
34177;BME280;20450;49.074;9.158;2023-02-20T10:07:08;100798.06;;;18.81;43.17
34177;BME280;20450;49.074;9.158;2023-02-20T10:10:22;100787.31;;;19.42;40.68
34177;BME280;20450;49.074;9.158;2023-02-20T10:13:05;100794.03;;;18.72;40.40
34177;BME280;20450;49.074;9.158;2023-02-20T10:15:51;100784.06;;;19.17;39.72
34177;BME280;20450;49.074;9.158;2023-02-20T10:18:36;100778.06;;;19.32;39.15
34177;BME280;20450;49.074;9.158;2023-02-20T10:21:26;100778.84;;;17.89;40.00
34177;BME280;20450;49.074;9.158;2023-02-20T10:24:12;100776.03;;;17.54;41.10
34177;BME280;20450;49.074;9.158;2023-02-20T10:26:56;100783.94;;;16.79;42.28
34177;BME280;20450;49.074;9.158;2023-02-20T10:29:32;100774.38;;;17.35;41.83
34177;BME280;20450;49.074;9.158;2023-02-20T10:32:06;100786.03;;;18.13;39.33
34177;BME280;20450;49.074;9.158;2023-02-20T10:34:40;100781.44;;;18.48;39.13
34177;BME280;20450;49.074;9.158;2023-02-20T10:37:14;100784.53;;;18.52;38.16
34177;BME280;20450;49.074;9.158;2023-02-20T10:39:49;100783.22;;;19.17;37.82
34177;BME280;20450;49.074;9.158;2023-02-20T10:42:28;100768.78;;;18.82;37.87
34177;BME280;20450;49.074;9.158;2023-02-20T10:45:02;100773.06;;;19.57;36.89
34177;BME280;20450;49.074;9.158;2023-02-20T10:47:41;100771.22;;;20.24;35.67
34177;BME280;20450;49.074;9.158;2023-02-20T10:50:17;100774.66;;;19.53;36.56
34177;BME280;20450;49.074;9.158;2023-02-20T10:52:53;100759.94;;;19.03;38.23
34177;BME280;20450;49.074;9.158;2023-02-20T10:55:27;100756.38;;;19.59;36.94
34177;BME280;20450;49.074;9.158;2023-02-20T10:58:04;100751.22;;;20.23;35.75
34177;BME280;20450;49.074;9.158;2023-02-20T11:00:38;100746.91;;;21.57;33.52
34177;BME280;20450;49.074;9.158;2023-02-20T11:03:13;100746.19;;;21.66;32.58
34177;BME280;20450;49.074;9.158;2023-02-20T11:05:47;100746.38;;;21.33;33.03
34177;BME280;20450;49.074;9.158;2023-02-20T11:08:20;100741.50;;;21.67;32.20
34177;BME280;20450;49.074;9.158;2023-02-20T11:10:48;100740.09;;;22.22;31.61
34177;BME280;20450;49.074;9.158;2023-02-20T11:13:18;100734.63;;;22.69;30.63
34177;BME280;20450;49.074;9.158;2023-02-20T11:15:49;100734.72;;;22.06;31.90
34177;BME280;20450;49.074;9.158;2023-02-20T11:18:22;100727.38;;;21.85;32.29
34177;BME280;20450;49.074;9.158;2023-02-20T11:20:51;100726.38;;;21.16;33.22
34177;BME280;20450;49.074;9.158;2023-02-20T11:23:36;100728.69;;;21.24;33.50
34177;BME280;20450;49.074;9.158;2023-02-20T11:26:25;100723.91;;;21.14;33.50
34177;BME280;20450;49.074;9.158;2023-02-20T11:29:01;100715.72;;;21.46;32.98
34177;BME280;20450;49.074;9.158;2023-02-20T11:31:33;100712.19;;;21.77;32.24
34177;BME280;20450;49.074;9.158;2023-02-20T11:34:03;100704.19;;;21.44;31.84
34177;BME280;20450;49.074;9.158;2023-02-20T11:36:36;100702.66;;;22.21;31.46
34177;BME280;20450;49.074;9.158;2023-02-20T11:39:17;100689.31;;;22.45;30.88
34177;BME280;20450;49.074;9.158;2023-02-20T11:41:48;100689.06;;;23.18;29.40
34177;BME280;20450;49.074;9.158;2023-02-20T11:44:22;100682.66;;;22.92;30.84
34177;BME280;20450;49.074;9.158;2023-02-20T11:47:10;100674.81;;;23.56;29.63
34177;BME280;20450;49.074;9.158;2023-02-20T11:50:11;100673.81;;;22.90;29.51
34177;BME280;20450;49.074;9.158;2023-02-20T11:52:57;100665.34;;;23.12;29.56
34177;BME280;20450;49.074;9.158;2023-02-20T11:55:28;100652.06;;;22.99;28.75
34177;BME280;20450;49.074;9.158;2023-02-20T11:57:55;100648.78;;;23.07;29.02
34177;BME280;20450;49.074;9.158;2023-02-20T12:00:23;100646.53;;;22.89;29.33
34177;BME280;20450;49.074;9.158;2023-02-20T12:02:54;100645.88;;;22.10;31.08
34177;BME280;20450;49.074;9.158;2023-02-20T12:05:37;100638.97;;;21.13;32.08
34177;BME280;20450;49.074;9.158;2023-02-20T12:08:23;100637.44;;;19.60;35.88
34177;BME280;20450;49.074;9.158;2023-02-20T12:11:12;100629.16;;;18.82;37.43
34177;BME280;20450;49.074;9.158;2023-02-20T12:13:44;100624.75;;;18.81;37.98
34177;BME280;20450;49.074;9.158;2023-02-20T12:16:33;100623.38;;;18.67;37.96
34177;BME280;20450;49.074;9.158;2023-02-20T12:19:14;100615.00;;;18.45;38.47
34177;BME280;20450;49.074;9.158;2023-02-20T12:21:55;100619.03;;;18.54;38.69
34177;BME280;20450;49.074;9.158;2023-02-20T12:24:41;100603.69;;;17.79;39.07
34177;BME280;20450;49.074;9.158;2023-02-20T12:27:34;100607.34;;;17.96;41.80
34177;BME280;20450;49.074;9.158;2023-02-20T12:30:26;100604.38;;;17.98;40.20
34177;BME280;20450;49.074;9.158;2023-02-20T12:33:28;100595.44;;;18.02;39.59
34177;BME280;20450;49.074;9.158;2023-02-20T12:36:12;100597.13;;;18.03;39.80
34177;BME280;20450;49.074;9.158;2023-02-20T12:38:57;100593.41;;;17.40;40.69
34177;BME280;20450;49.074;9.158;2023-02-20T12:41:33;100586.28;;;17.39;40.38
34177;BME280;20450;49.074;9.158;2023-02-20T12:44:26;100574.69;;;17.43;40.49
34177;BME280;20450;49.074;9.158;2023-02-20T12:47:07;100574.31;;;17.51;40.66
34177;BME280;20450;49.074;9.158;2023-02-20T12:50:10;100579.38;;;17.25;42.38
34177;BME280;20450;49.074;9.158;2023-02-20T12:53:11;100578.19;;;17.32;41.25
34177;BME280;20450;49.074;9.158;2023-02-20T12:55:59;100561.19;;;17.07;42.88
34177;BME280;20450;49.074;9.158;2023-02-20T12:59:00;100562.13;;;17.01;41.55
34177;BME280;20450;49.074;9.158;2023-02-20T13:01:41;100559.03;;;16.98;42.03
34177;BME280;20450;49.074;9.158;2023-02-20T13:04:17;100560.94;;;16.97;42.56
34177;BME280;20450;49.074;9.158;2023-02-20T13:07:20;100554.97;;;16.89;41.30
34177;BME280;20450;49.074;9.158;2023-02-20T13:10:12;100548.44;;;16.49;41.74
34177;BME280;20450;49.074;9.158;2023-02-20T13:12:47;100545.13;;;16.47;42.66
34177;BME280;20450;49.074;9.158;2023-02-20T13:15:26;100539.94;;;16.39;43.25
34177;BME280;20450;49.074;9.158;2023-02-20T13:18:48;100532.09;;;16.31;43.51
34177;BME280;20450;49.074;9.158;2023-02-20T13:21:28;100531.03;;;16.32;44.23
34177;BME280;20450;49.074;9.158;2023-02-20T13:24:29;100533.38;;;16.46;43.43
34177;BME280;20450;49.074;9.158;2023-02-20T13:27:33;100510.56;;;16.41;43.86
34177;BME280;20450;49.074;9.158;2023-02-20T13:30:16;100503.72;;;16.20;43.42
34177;BME280;20450;49.074;9.158;2023-02-20T13:32:47;100503.06;;;16.07;44.00
34177;BME280;20450;49.074;9.158;2023-02-20T13:36:41;100489.88;;;16.22;43.25
34177;BME280;20450;49.074;9.158;2023-02-20T13:40:36;100477.69;;;16.36;43.11